sensor_id;sensor_type;location;lat;lon;timestamp;temperature;humidity
26907;DHT22;14472;56.880;16.658;2024-02-26T00:01:26;3.40;99.90
26907;DHT22;14472;56.880;16.658;2024-02-26T00:03:52;3.50;99.90
26907;DHT22;14472;56.880;16.658;2024-02-26T00:06:19;3.40;99.90
26907;DHT22;14472;56.880;16.658;2024-02-26T00:08:46;3.40;99.90
26907;DHT22;14472;56.880;16.658;2024-02-26T00:11:11;3.50;99.90
26907;DHT22;14472;56.880;16.658;2024-02-26T00:13:37;3.50;99.90
26907;DHT22;14472;56.880;16.658;2024-02-26T00:16:04;3.50;99.90
26907;DHT22;14472;56.880;16.658;2024-02-26T00:18:29;3.40;99.90
26907;DHT22;14472;56.880;16.658;2024-02-26T00:20:55;3.30;99.90
26907;DHT22;14472;56.880;16.658;2024-02-26T00:23:21;3.40;99.90
26907;DHT22;14472;56.880;16.658;2024-02-26T00:25:48;3.30;99.90
26907;DHT22;14472;56.880;16.658;2024-02-26T00:28:14;3.20;99.90
26907;DHT22;14472;56.880;16.658;2024-02-26T00:30:39;3.10;99.90
26907;DHT22;14472;56.880;16.658;2024-02-26T00:33:05;3.10;99.90
26907;DHT22;14472;56.880;16.658;2024-02-26T00:35:31;3.00;99.90
26907;DHT22;14472;56.880;16.658;2024-02-26T00:37:56;3.00;99.90
26907;DHT22;14472;56.880;16.658;2024-02-26T00:40:24;3.00;99.90
26907;DHT22;14472;56.880;16.658;2024-02-26T00:42:49;2.90;99.90
26907;DHT22;14472;56.880;16.658;2024-02-26T00:45:15;2.90;99.90
26907;DHT22;14472;56.880;16.658;2024-02-26T00:47:42;2.90;99.90
26907;DHT22;14472;56.880;16.658;2024-02-26T00:50:10;2.90;99.90
26907;DHT22;14472;56.880;16.658;2024-02-26T00:52:35;2.80;99.90
26907;DHT22;14472;56.880;16.658;2024-02-26T00:55:02;2.80;99.90
26907;DHT22;14472;56.880;16.658;2024-02-26T00:57:28;2.80;99.90
26907;DHT22;14472;56.880;16.658;2024-02-26T00:59:53;2.70;99.90
26907;DHT22;14472;56.880;16.658;2024-02-26T01:02:21;2.70;99.90
26907;DHT22;14472;56.880;16.658;2024-02-26T01:04:47;2.70;99.90
26907;DHT22;14472;56.880;16.658;2024-02-26T01:07:13;2.80;99.90
26907;DHT22;14472;56.880;16.658;2024-02-26T01:09:39;2.60;99.90
26907;DHT22;14472;56.880;16.658;2024-02-26T01:12:04;2.60;99.90
26907;DHT22;14472;56.880;16.658;2024-02-26T01:14:31;2.70;99.90
26907;DHT22;14472;56.880;16.658;2024-02-26T01:16:57;2.70;99.90
26907;DHT22;14472;56.880;16.658;2024-02-26T01:19:22;2.70;99.90
26907;DHT22;14472;56.880;16.658;2024-02-26T01:21:48;2.70;99.90
26907;DHT22;14472;56.880;16.658;2024-02-26T01:24:14;2.70;99.90
26907;DHT22;14472;56.880;16.658;2024-02-26T01:26:41;2.70;99.90
26907;DHT22;14472;56.880;16.658;2024-02-26T01:29:06;2.60;99.90
26907;DHT22;14472;56.880;16.658;2024-02-26T01:31:32;2.60;99.90
26907;DHT22;14472;56.880;16.658;2024-02-26T01:33:58;2.60;99.90
26907;DHT22;14472;56.880;16.658;2024-02-26T01:36:23;2.60;99.90
26907;DHT22;14472;56.880;16.658;2024-02-26T01:38:49;2.60;99.90
26907;DHT22;14472;56.880;16.658;2024-02-26T01:41:15;2.60;99.90
26907;DHT22;14472;56.880;16.658;2024-02-26T01:43:41;2.50;99.90
26907;DHT22;14472;56.880;16.658;2024-02-26T01:46:10;2.60;99.90
26907;DHT22;14472;56.880;16.658;2024-02-26T01:48:36;2.60;99.90
26907;DHT22;14472;56.880;16.658;2024-02-26T01:51:02;2.70;99.90
26907;DHT22;14472;56.880;16.658;2024-02-26T01:53:28;2.60;99.90
26907;DHT22;14472;56.880;16.658;2024-02-26T01:55:54;2.50;99.90
26907;DHT22;14472;56.880;16.658;2024-02-26T01:58:20;2.50;99.90
26907;DHT22;14472;56.880;16.658;2024-02-26T02:00:46;2.60;99.90
26907;DHT22;14472;56.880;16.658;2024-02-26T02:03:12;2.60;99.90
26907;DHT22;14472;56.880;16.658;2024-02-26T02:05:38;2.50;99.90
26907;DHT22;14472;56.880;16.658;2024-02-26T02:08:10;2.40;99.90
26907;DHT22;14472;56.880;16.658;2024-02-26T02:10:38;2.40;99.90
26907;DHT22;14472;56.880;16.658;2024-02-26T02:13:04;2.30;99.90
26907;DHT22;14472;56.880;16.658;2024-02-26T02:15:30;2.30;99.90
26907;DHT22;14472;56.880;16.658;2024-02-26T02:17:55;2.30;99.90
26907;DHT22;14472;56.880;16.658;2024-02-26T02:20:34;2.30;99.90
26907;DHT22;14472;56.880;16.658;2024-02-26T02:23:00;2.30;99.90
26907;DHT22;14472;56.880;16.658;2024-02-26T02:25:26;2.40;99.90
26907;DHT22;14472;56.880;16.658;2024-02-26T02:27:53;2.30;99.90
26907;DHT22;14472;56.880;16.658;2024-02-26T02:30:20;2.30;99.90
26907;DHT22;14472;56.880;16.658;2024-02-26T02:32:46;2.20;99.90
26907;DHT22;14472;56.880;16.658;2024-02-26T02:35:12;2.20;99.90
26907;DHT22;14472;56.880;16.658;2024-02-26T02:37:38;2.20;99.90
26907;DHT22;14472;56.880;16.658;2024-02-26T02:40:04;2.20;99.90
26907;DHT22;14472;56.880;16.658;2024-02-26T02:42:30;2.20;99.90
26907;DHT22;14472;56.880;16.658;2024-02-26T02:44:56;2.10;99.90
26907;DHT22;14472;56.880;16.658;2024-02-26T02:47:22;2.10;99.90
26907;DHT22;14472;56.880;16.658;2024-02-26T02:49:48;2.10;99.90
26907;DHT22;14472;56.880;16.658;2024-02-26T02:52:13;2.20;99.90
26907;DHT22;14472;56.880;16.658;2024-02-26T02:54:39;2.40;99.90
26907;DHT22;14472;56.880;16.658;2024-02-26T02:57:10;2.40;99.90
26907;DHT22;14472;56.880;16.658;2024-02-26T02:59:36;2.30;99.90
26907;DHT22;14472;56.880;16.658;2024-02-26T03:02:02;2.40;99.90
26907;DHT22;14472;56.880;16.658;2024-02-26T03:04:28;2.50;99.90
26907;DHT22;14472;56.880;16.658;2024-02-26T03:06:54;2.50;99.90
26907;DHT22;14472;56.880;16.658;2024-02-26T03:09:20;2.50;99.90
26907;DHT22;14472;56.880;16.658;2024-02-26T03:11:46;2.40;99.90
26907;DHT22;14472;56.880;16.658;2024-02-26T03:14:11;2.40;99.90
26907;DHT22;14472;56.880;16.658;2024-02-26T03:16:37;2.50;99.90
26907;DHT22;14472;56.880;16.658;2024-02-26T03:19:03;2.50;99.90
26907;DHT22;14472;56.880;16.658;2024-02-26T03:21:29;2.50;99.90
26907;DHT22;14472;56.880;16.658;2024-02-26T03:23:54;2.50;99.90
26907;DHT22;14472;56.880;16.658;2024-02-26T03:26:20;2.50;99.90
26907;DHT22;14472;56.880;16.658;2024-02-26T03:28:47;2.50;99.90
26907;DHT22;14472;56.880;16.658;2024-02-26T03:31:13;2.40;99.90
26907;DHT22;14472;56.880;16.658;2024-02-26T03:33:38;2.40;99.90
26907;DHT22;14472;56.880;16.658;2024-02-26T03:36:04;2.40;99.90
26907;DHT22;14472;56.880;16.658;2024-02-26T03:38:30;2.40;99.90
26907;DHT22;14472;56.880;16.658;2024-02-26T03:40:56;2.40;99.90
26907;DHT22;14472;56.880;16.658;2024-02-26T03:43:22;2.50;99.90
26907;DHT22;14472;56.880;16.658;2024-02-26T03:45:47;2.50;99.90
26907;DHT22;14472;56.880;16.658;2024-02-26T03:48:13;2.50;99.90
26907;DHT22;14472;56.880;16.658;2024-02-26T03:50:39;2.40;99.90
26907;DHT22;14472;56.880;16.658;2024-02-26T03:53:05;2.50;99.90
26907;DHT22;14472;56.880;16.658;2024-02-26T03:55:31;2.50;99.90
26907;DHT22;14472;56.880;16.658;2024-02-26T03:57:56;2.50;99.90
26907;DHT22;14472;56.880;16.658;2024-02-26T04:00:22;2.50;99.90
26907;DHT22;14472;56.880;16.658;2024-02-26T04:02:48;2.60;99.90
26907;DHT22;14472;56.880;16.658;2024-02-26T04:05:14;2.60;99.90
26907;DHT22;14472;56.880;16.658;2024-02-26T04:07:40;2.60;99.90
26907;DHT22;14472;56.880;16.658;2024-02-26T04:10:13;2.60;99.90
26907;DHT22;14472;56.880;16.658;2024-02-26T04:12:39;2.70;99.90
26907;DHT22;14472;56.880;16.658;2024-02-26T04:15:09;2.80;99.90
26907;DHT22;14472;56.880;16.658;2024-02-26T04:17:36;2.70;99.90
26907;DHT22;14472;56.880;16.658;2024-02-26T04:20:03;2.80;99.90
26907;DHT22;14472;56.880;16.658;2024-02-26T04:22:29;2.80;99.90
26907;DHT22;14472;56.880;16.658;2024-02-26T04:24:54;2.80;99.90
26907;DHT22;14472;56.880;16.658;2024-02-26T04:27:20;2.80;99.90
26907;DHT22;14472;56.880;16.658;2024-02-26T04:29:45;2.70;99.90
26907;DHT22;14472;56.880;16.658;2024-02-26T04:32:11;2.70;99.90
26907;DHT22;14472;56.880;16.658;2024-02-26T04:34:37;2.80;99.90
26907;DHT22;14472;56.880;16.658;2024-02-26T04:37:03;2.60;99.90
26907;DHT22;14472;56.880;16.658;2024-02-26T04:39:29;2.60;99.90
26907;DHT22;14472;56.880;16.658;2024-02-26T04:41:54;2.60;99.90
26907;DHT22;14472;56.880;16.658;2024-02-26T04:44:20;2.50;99.90
26907;DHT22;14472;56.880;16.658;2024-02-26T04:46:45;2.50;99.90
26907;DHT22;14472;56.880;16.658;2024-02-26T04:49:11;2.50;99.90
26907;DHT22;14472;56.880;16.658;2024-02-26T04:51:37;2.40;99.90
26907;DHT22;14472;56.880;16.658;2024-02-26T04:54:03;2.50;99.90
26907;DHT22;14472;56.880;16.658;2024-02-26T04:56:28;2.40;99.90
26907;DHT22;14472;56.880;16.658;2024-02-26T04:58:54;2.40;99.90
26907;DHT22;14472;56.880;16.658;2024-02-26T05:01:20;2.40;99.90
26907;DHT22;14472;56.880;16.658;2024-02-26T05:03:46;2.40;99.90
26907;DHT22;14472;56.880;16.658;2024-02-26T05:06:12;2.30;99.90
26907;DHT22;14472;56.880;16.658;2024-02-26T05:08:38;2.40;99.90
26907;DHT22;14472;56.880;16.658;2024-02-26T05:11:04;2.40;99.90
26907;DHT22;14472;56.880;16.658;2024-02-26T05:13:30;2.40;99.90
26907;DHT22;14472;56.880;16.658;2024-02-26T05:15:56;2.40;99.90
26907;DHT22;14472;56.880;16.658;2024-02-26T05:18:24;2.60;99.90
26907;DHT22;14472;56.880;16.658;2024-02-26T05:20:50;2.90;99.90
26907;DHT22;14472;56.880;16.658;2024-02-26T05:23:16;2.90;99.90
26907;DHT22;14472;56.880;16.658;2024-02-26T05:25:41;2.90;99.90
26907;DHT22;14472;56.880;16.658;2024-02-26T05:28:07;3.00;99.90
26907;DHT22;14472;56.880;16.658;2024-02-26T05:30:33;3.00;99.90
26907;DHT22;14472;56.880;16.658;2024-02-26T05:32:59;3.00;99.90
26907;DHT22;14472;56.880;16.658;2024-02-26T05:35:25;2.90;99.90
26907;DHT22;14472;56.880;16.658;2024-02-26T05:37:51;2.80;99.90
26907;DHT22;14472;56.880;16.658;2024-02-26T05:40:17;2.90;99.90
26907;DHT22;14472;56.880;16.658;2024-02-26T05:42:42;2.90;99.90
26907;DHT22;14472;56.880;16.658;2024-02-26T05:45:10;2.80;99.90
26907;DHT22;14472;56.880;16.658;2024-02-26T05:47:36;2.60;99.90
26907;DHT22;14472;56.880;16.658;2024-02-26T05:50:11;2.70;99.90
26907;DHT22;14472;56.880;16.658;2024-02-26T05:52:37;2.60;99.90
26907;DHT22;14472;56.880;16.658;2024-02-26T05:55:06;2.50;99.90
26907;DHT22;14472;56.880;16.658;2024-02-26T05:57:33;2.50;99.90
26907;DHT22;14472;56.880;16.658;2024-02-26T05:59:59;2.50;99.90
26907;DHT22;14472;56.880;16.658;2024-02-26T06:02:32;2.40;99.90
26907;DHT22;14472;56.880;16.658;2024-02-26T06:04:58;2.40;99.90
26907;DHT22;14472;56.880;16.658;2024-02-26T06:07:24;2.60;99.90
26907;DHT22;14472;56.880;16.658;2024-02-26T06:09:50;2.60;99.90
26907;DHT22;14472;56.880;16.658;2024-02-26T06:12:16;2.70;99.90
26907;DHT22;14472;56.880;16.658;2024-02-26T06:14:42;2.70;99.90
26907;DHT22;14472;56.880;16.658;2024-02-26T06:17:08;2.80;99.90
26907;DHT22;14472;56.880;16.658;2024-02-26T06:19:34;2.70;99.90
26907;DHT22;14472;56.880;16.658;2024-02-26T06:21:59;2.70;99.90
26907;DHT22;14472;56.880;16.658;2024-02-26T06:24:25;2.80;99.90
26907;DHT22;14472;56.880;16.658;2024-02-26T06:26:51;2.80;99.90
26907;DHT22;14472;56.880;16.658;2024-02-26T06:29:16;2.80;99.90
26907;DHT22;14472;56.880;16.658;2024-02-26T06:31:42;2.80;99.90
26907;DHT22;14472;56.880;16.658;2024-02-26T06:34:08;2.80;99.90
26907;DHT22;14472;56.880;16.658;2024-02-26T06:36:34;2.70;99.90
26907;DHT22;14472;56.880;16.658;2024-02-26T06:39:00;2.80;99.90
26907;DHT22;14472;56.880;16.658;2024-02-26T06:41:26;2.80;99.90
26907;DHT22;14472;56.880;16.658;2024-02-26T06:43:56;2.80;99.90
26907;DHT22;14472;56.880;16.658;2024-02-26T06:46:22;2.80;99.90
26907;DHT22;14472;56.880;16.658;2024-02-26T06:48:49;2.80;99.90
26907;DHT22;14472;56.880;16.658;2024-02-26T06:51:15;2.90;99.90
26907;DHT22;14472;56.880;16.658;2024-02-26T06:53:40;2.90;99.90
26907;DHT22;14472;56.880;16.658;2024-02-26T06:56:06;2.80;99.90
26907;DHT22;14472;56.880;16.658;2024-02-26T06:58:32;2.80;99.90
26907;DHT22;14472;56.880;16.658;2024-02-26T07:00:58;2.90;99.90
26907;DHT22;14472;56.880;16.658;2024-02-26T07:03:24;2.90;99.90
26907;DHT22;14472;56.880;16.658;2024-02-26T07:05:51;3.20;99.90
26907;DHT22;14472;56.880;16.658;2024-02-26T07:08:17;3.40;99.90
26907;DHT22;14472;56.880;16.658;2024-02-26T07:10:43;3.10;99.90
26907;DHT22;14472;56.880;16.658;2024-02-26T07:13:09;3.00;99.90
26907;DHT22;14472;56.880;16.658;2024-02-26T07:15:34;3.20;99.90
26907;DHT22;14472;56.880;16.658;2024-02-26T07:18:00;3.20;99.90
26907;DHT22;14472;56.880;16.658;2024-02-26T07:20:29;3.10;99.90
26907;DHT22;14472;56.880;16.658;2024-02-26T07:22:56;3.20;99.90
26907;DHT22;14472;56.880;16.658;2024-02-26T07:25:21;3.30;99.90
26907;DHT22;14472;56.880;16.658;2024-02-26T07:27:47;3.40;99.90
26907;DHT22;14472;56.880;16.658;2024-02-26T07:30:13;3.50;99.90
26907;DHT22;14472;56.880;16.658;2024-02-26T07:32:39;3.70;99.90
26907;DHT22;14472;56.880;16.658;2024-02-26T07:35:05;3.40;99.90
26907;DHT22;14472;56.880;16.658;2024-02-26T07:37:30;3.20;99.90
26907;DHT22;14472;56.880;16.658;2024-02-26T07:39:56;3.10;99.90
26907;DHT22;14472;56.880;16.658;2024-02-26T07:42:22;2.90;99.90
26907;DHT22;14472;56.880;16.658;2024-02-26T07:44:48;3.10;99.90
26907;DHT22;14472;56.880;16.658;2024-02-26T07:47:13;3.20;99.90
26907;DHT22;14472;56.880;16.658;2024-02-26T07:49:40;3.10;99.90
26907;DHT22;14472;56.880;16.658;2024-02-26T07:52:06;3.00;99.90
26907;DHT22;14472;56.880;16.658;2024-02-26T07:54:31;3.00;99.90
26907;DHT22;14472;56.880;16.658;2024-02-26T07:56:57;2.90;99.90
26907;DHT22;14472;56.880;16.658;2024-02-26T07:59:23;2.90;99.90
26907;DHT22;14472;56.880;16.658;2024-02-26T08:01:53;2.90;99.90
26907;DHT22;14472;56.880;16.658;2024-02-26T08:04:18;2.90;99.90
26907;DHT22;14472;56.880;16.658;2024-02-26T08:06:44;2.80;99.90
26907;DHT22;14472;56.880;16.658;2024-02-26T08:09:10;2.80;99.90
26907;DHT22;14472;56.880;16.658;2024-02-26T08:11:36;2.80;99.90
26907;DHT22;14472;56.880;16.658;2024-02-26T08:14:01;2.80;99.90
26907;DHT22;14472;56.880;16.658;2024-02-26T08:16:27;2.80;99.90
26907;DHT22;14472;56.880;16.658;2024-02-26T08:18:53;2.80;99.90
26907;DHT22;14472;56.880;16.658;2024-02-26T08:21:19;2.70;99.90
26907;DHT22;14472;56.880;16.658;2024-02-26T08:23:45;2.80;99.90
26907;DHT22;14472;56.880;16.658;2024-02-26T08:26:10;2.80;99.90
26907;DHT22;14472;56.880;16.658;2024-02-26T08:28:37;2.80;99.90
26907;DHT22;14472;56.880;16.658;2024-02-26T08:31:03;2.70;99.90
26907;DHT22;14472;56.880;16.658;2024-02-26T08:33:29;2.70;99.90
26907;DHT22;14472;56.880;16.658;2024-02-26T08:35:55;2.80;99.90
26907;DHT22;14472;56.880;16.658;2024-02-26T08:38:21;2.80;99.90
26907;DHT22;14472;56.880;16.658;2024-02-26T08:40:47;2.80;99.90
26907;DHT22;14472;56.880;16.658;2024-02-26T08:43:12;2.70;99.90
26907;DHT22;14472;56.880;16.658;2024-02-26T08:45:38;2.80;99.90
26907;DHT22;14472;56.880;16.658;2024-02-26T08:48:04;2.70;99.90
26907;DHT22;14472;56.880;16.658;2024-02-26T08:50:29;2.80;99.90
26907;DHT22;14472;56.880;16.658;2024-02-26T08:52:56;2.80;99.90
26907;DHT22;14472;56.880;16.658;2024-02-26T08:55:22;2.80;99.90
26907;DHT22;14472;56.880;16.658;2024-02-26T08:57:47;2.80;99.90
26907;DHT22;14472;56.880;16.658;2024-02-26T09:00:14;2.80;99.90
26907;DHT22;14472;56.880;16.658;2024-02-26T09:02:41;2.90;99.90
26907;DHT22;14472;56.880;16.658;2024-02-26T09:05:09;2.90;99.90
26907;DHT22;14472;56.880;16.658;2024-02-26T09:07:35;3.00;99.90
26907;DHT22;14472;56.880;16.658;2024-02-26T09:10:02;3.00;99.90
26907;DHT22;14472;56.880;16.658;2024-02-26T09:12:28;3.00;99.90
26907;DHT22;14472;56.880;16.658;2024-02-26T09:14:53;3.10;99.90
26907;DHT22;14472;56.880;16.658;2024-02-26T09:17:21;3.10;99.90
26907;DHT22;14472;56.880;16.658;2024-02-26T09:19:46;3.10;99.90
26907;DHT22;14472;56.880;16.658;2024-02-26T09:22:12;3.40;99.90
26907;DHT22;14472;56.880;16.658;2024-02-26T09:24:38;3.30;99.90
26907;DHT22;14472;56.880;16.658;2024-02-26T09:27:04;3.30;99.90
26907;DHT22;14472;56.880;16.658;2024-02-26T09:29:29;3.30;99.90
26907;DHT22;14472;56.880;16.658;2024-02-26T09:31:55;3.30;99.90
26907;DHT22;14472;56.880;16.658;2024-02-26T09:34:21;3.30;99.90
26907;DHT22;14472;56.880;16.658;2024-02-26T09:36:46;3.40;99.90
26907;DHT22;14472;56.880;16.658;2024-02-26T09:39:12;3.40;99.90
26907;DHT22;14472;56.880;16.658;2024-02-26T09:41:40;3.40;99.90
26907;DHT22;14472;56.880;16.658;2024-02-26T09:44:06;3.40;99.90
26907;DHT22;14472;56.880;16.658;2024-02-26T09:46:33;3.50;99.90
26907;DHT22;14472;56.880;16.658;2024-02-26T09:48:59;3.40;99.90
26907;DHT22;14472;56.880;16.658;2024-02-26T09:51:25;3.40;99.90
26907;DHT22;14472;56.880;16.658;2024-02-26T09:53:52;3.40;99.90
26907;DHT22;14472;56.880;16.658;2024-02-26T09:56:18;3.40;99.90
26907;DHT22;14472;56.880;16.658;2024-02-26T09:58:44;3.40;99.90
26907;DHT22;14472;56.880;16.658;2024-02-26T10:01:16;3.40;99.90
26907;DHT22;14472;56.880;16.658;2024-02-26T10:03:43;3.40;99.90
26907;DHT22;14472;56.880;16.658;2024-02-26T10:06:13;3.50;99.90
26907;DHT22;14472;56.880;16.658;2024-02-26T10:08:40;3.50;99.90
26907;DHT22;14472;56.880;16.658;2024-02-26T10:11:07;3.50;99.90
26907;DHT22;14472;56.880;16.658;2024-02-26T10:13:35;3.50;99.90
26907;DHT22;14472;56.880;16.658;2024-02-26T10:16:01;3.50;99.90
26907;DHT22;14472;56.880;16.658;2024-02-26T10:18:47;3.60;99.90
26907;DHT22;14472;56.880;16.658;2024-02-26T10:21:15;3.60;99.90
26907;DHT22;14472;56.880;16.658;2024-02-26T10:23:43;3.60;99.90
26907;DHT22;14472;56.880;16.658;2024-02-26T10:26:11;3.70;99.90
26907;DHT22;14472;56.880;16.658;2024-02-26T10:28:39;3.70;99.90
26907;DHT22;14472;56.880;16.658;2024-02-26T10:31:05;3.70;99.90
26907;DHT22;14472;56.880;16.658;2024-02-26T10:33:34;3.70;99.90
26907;DHT22;14472;56.880;16.658;2024-02-26T10:36:05;3.70;99.90
26907;DHT22;14472;56.880;16.658;2024-02-26T10:38:32;3.70;99.90
26907;DHT22;14472;56.880;16.658;2024-02-26T10:40:58;3.70;99.90
26907;DHT22;14472;56.880;16.658;2024-02-26T10:43:25;3.80;99.90
26907;DHT22;14472;56.880;16.658;2024-02-26T10:45:51;3.80;99.90
26907;DHT22;14472;56.880;16.658;2024-02-26T10:48:17;3.80;99.90
26907;DHT22;14472;56.880;16.658;2024-02-26T10:50:44;3.80;99.90
26907;DHT22;14472;56.880;16.658;2024-02-26T10:53:22;3.90;99.90
26907;DHT22;14472;56.880;16.658;2024-02-26T10:55:58;4.00;99.90
26907;DHT22;14472;56.880;16.658;2024-02-26T10:58:26;3.90;99.90
26907;DHT22;14472;56.880;16.658;2024-02-26T11:00:52;3.90;99.90
26907;DHT22;14472;56.880;16.658;2024-02-26T11:03:19;3.90;99.90
26907;DHT22;14472;56.880;16.658;2024-02-26T11:05:49;4.00;99.90
26907;DHT22;14472;56.880;16.658;2024-02-26T11:08:19;3.90;99.90
26907;DHT22;14472;56.880;16.658;2024-02-26T11:10:50;3.90;99.90
26907;DHT22;14472;56.880;16.658;2024-02-26T11:13:18;3.90;99.90
26907;DHT22;14472;56.880;16.658;2024-02-26T11:15:46;3.90;99.90
26907;DHT22;14472;56.880;16.658;2024-02-26T11:18:14;4.00;99.90
26907;DHT22;14472;56.880;16.658;2024-02-26T11:20:41;4.00;99.90
26907;DHT22;14472;56.880;16.658;2024-02-26T11:23:07;4.10;99.90
26907;DHT22;14472;56.880;16.658;2024-02-26T11:25:35;4.00;99.90
26907;DHT22;14472;56.880;16.658;2024-02-26T11:28:04;4.00;99.90
26907;DHT22;14472;56.880;16.658;2024-02-26T11:30:33;4.00;99.90
26907;DHT22;14472;56.880;16.658;2024-02-26T11:33:01;4.00;99.90
26907;DHT22;14472;56.880;16.658;2024-02-26T11:35:28;4.00;99.90
26907;DHT22;14472;56.880;16.658;2024-02-26T11:37:55;4.00;99.90
26907;DHT22;14472;56.880;16.658;2024-02-26T11:40:24;4.00;99.90
26907;DHT22;14472;56.880;16.658;2024-02-26T11:42:50;4.00;99.90
26907;DHT22;14472;56.880;16.658;2024-02-26T11:48:15;4.10;99.90
26907;DHT22;14472;56.880;16.658;2024-02-26T11:50:48;4.00;99.90
26907;DHT22;14472;56.880;16.658;2024-02-26T11:53:27;4.00;99.90
26907;DHT22;14472;56.880;16.658;2024-02-26T12:04:24;3.90;99.90
26907;DHT22;14472;56.880;16.658;2024-02-26T12:07:00;4.00;99.90
26907;DHT22;14472;56.880;16.658;2024-02-26T12:09:42;4.10;99.90
26907;DHT22;14472;56.880;16.658;2024-02-26T12:12:09;4.00;99.90
26907;DHT22;14472;56.880;16.658;2024-02-26T12:14:51;4.00;99.90
26907;DHT22;14472;56.880;16.658;2024-02-26T12:17:25;4.30;99.90
26907;DHT22;14472;56.880;16.658;2024-02-26T12:19:51;4.20;99.90
26907;DHT22;14472;56.880;16.658;2024-02-26T12:22:19;4.10;99.90
26907;DHT22;14472;56.880;16.658;2024-02-26T12:24:45;4.10;99.90
26907;DHT22;14472;56.880;16.658;2024-02-26T12:27:11;4.30;99.90
26907;DHT22;14472;56.880;16.658;2024-02-26T12:29:36;4.40;99.90
26907;DHT22;14472;56.880;16.658;2024-02-26T12:32:05;4.30;99.90
26907;DHT22;14472;56.880;16.658;2024-02-26T12:34:31;4.40;99.90
26907;DHT22;14472;56.880;16.658;2024-02-26T12:36:57;4.40;99.90
26907;DHT22;14472;56.880;16.658;2024-02-26T12:39:23;4.60;99.90
26907;DHT22;14472;56.880;16.658;2024-02-26T12:41:49;4.40;99.90
26907;DHT22;14472;56.880;16.658;2024-02-26T12:44:28;4.30;99.90
26907;DHT22;14472;56.880;16.658;2024-02-26T12:47:03;4.20;99.90
26907;DHT22;14472;56.880;16.658;2024-02-26T12:49:30;4.30;99.90
26907;DHT22;14472;56.880;16.658;2024-02-26T12:51:55;4.40;99.90
26907;DHT22;14472;56.880;16.658;2024-02-26T12:54:31;4.30;99.90
26907;DHT22;14472;56.880;16.658;2024-02-26T12:56:58;4.20;99.90
26907;DHT22;14472;56.880;16.658;2024-02-26T12:59:24;4.20;99.90
26907;DHT22;14472;56.880;16.658;2024-02-26T13:01:50;4.60;99.90
26907;DHT22;14472;56.880;16.658;2024-02-26T13:04:16;4.50;99.90
26907;DHT22;14472;56.880;16.658;2024-02-26T13:06:43;4.40;99.90
26907;DHT22;14472;56.880;16.658;2024-02-26T13:09:13;4.40;99.90
26907;DHT22;14472;56.880;16.658;2024-02-26T13:11:40;4.40;99.90
26907;DHT22;14472;56.880;16.658;2024-02-26T13:14:05;4.70;99.90
26907;DHT22;14472;56.880;16.658;2024-02-26T13:16:32;4.70;99.90
26907;DHT22;14472;56.880;16.658;2024-02-26T13:19:11;4.60;99.90
26907;DHT22;14472;56.880;16.658;2024-02-26T13:21:37;4.50;99.90
26907;DHT22;14472;56.880;16.658;2024-02-26T13:24:03;4.60;99.90
26907;DHT22;14472;56.880;16.658;2024-02-26T13:26:28;4.80;99.90
26907;DHT22;14472;56.880;16.658;2024-02-26T13:29:03;4.80;99.90
26907;DHT22;14472;56.880;16.658;2024-02-26T13:31:29;4.80;99.90
26907;DHT22;14472;56.880;16.658;2024-02-26T13:33:55;4.70;99.90
26907;DHT22;14472;56.880;16.658;2024-02-26T13:36:24;4.60;99.90
26907;DHT22;14472;56.880;16.658;2024-02-26T13:38:54;5.00;99.90
26907;DHT22;14472;56.880;16.658;2024-02-26T13:41:21;4.90;99.90
26907;DHT22;14472;56.880;16.658;2024-02-26T13:43:47;4.70;99.90
26907;DHT22;14472;56.880;16.658;2024-02-26T13:46:14;4.80;99.90
26907;DHT22;14472;56.880;16.658;2024-02-26T13:48:41;4.80;99.90
26907;DHT22;14472;56.880;16.658;2024-02-26T13:51:07;4.90;99.90
26907;DHT22;14472;56.880;16.658;2024-02-26T13:53:33;5.00;99.90
26907;DHT22;14472;56.880;16.658;2024-02-26T13:55:58;5.00;99.90
26907;DHT22;14472;56.880;16.658;2024-02-26T13:58:27;4.90;99.90
26907;DHT22;14472;56.880;16.658;2024-02-26T14:00:55;4.80;99.90
26907;DHT22;14472;56.880;16.658;2024-02-26T14:03:22;4.90;99.90
26907;DHT22;14472;56.880;16.658;2024-02-26T14:05:48;5.00;99.90
26907;DHT22;14472;56.880;16.658;2024-02-26T14:08:14;5.00;99.90
26907;DHT22;14472;56.880;16.658;2024-02-26T14:10:40;4.80;99.90
26907;DHT22;14472;56.880;16.658;2024-02-26T14:13:05;4.80;99.90
26907;DHT22;14472;56.880;16.658;2024-02-26T14:15:34;5.10;99.90
26907;DHT22;14472;56.880;16.658;2024-02-26T14:18:01;5.00;99.90
26907;DHT22;14472;56.880;16.658;2024-02-26T14:20:28;4.80;99.90
26907;DHT22;14472;56.880;16.658;2024-02-26T14:22:54;4.70;99.90
26907;DHT22;14472;56.880;16.658;2024-02-26T14:25:20;4.90;99.90
26907;DHT22;14472;56.880;16.658;2024-02-26T14:27:47;5.00;99.90
26907;DHT22;14472;56.880;16.658;2024-02-26T14:30:13;4.80;99.90
26907;DHT22;14472;56.880;16.658;2024-02-26T14:32:39;4.60;99.90
26907;DHT22;14472;56.880;16.658;2024-02-26T14:35:09;4.50;99.90
26907;DHT22;14472;56.880;16.658;2024-02-26T14:37:36;4.70;99.90
26907;DHT22;14472;56.880;16.658;2024-02-26T14:40:02;4.70;99.90
26907;DHT22;14472;56.880;16.658;2024-02-26T14:42:31;4.40;99.90
26907;DHT22;14472;56.880;16.658;2024-02-26T14:44:56;4.30;99.90
26907;DHT22;14472;56.880;16.658;2024-02-26T14:47:22;4.20;99.90
26907;DHT22;14472;56.880;16.658;2024-02-26T14:49:48;4.40;99.90
26907;DHT22;14472;56.880;16.658;2024-02-26T14:52:14;4.30;99.90
26907;DHT22;14472;56.880;16.658;2024-02-26T14:54:40;4.20;99.90
26907;DHT22;14472;56.880;16.658;2024-02-26T14:57:06;4.10;99.90
26907;DHT22;14472;56.880;16.658;2024-02-26T14:59:33;4.10;99.90
26907;DHT22;14472;56.880;16.658;2024-02-26T15:01:59;4.30;99.90
26907;DHT22;14472;56.880;16.658;2024-02-26T15:04:28;4.20;99.90
26907;DHT22;14472;56.880;16.658;2024-02-26T15:06:53;4.20;99.90
26907;DHT22;14472;56.880;16.658;2024-02-26T15:09:19;4.10;99.90
26907;DHT22;14472;56.880;16.658;2024-02-26T15:11:45;4.10;99.90
26907;DHT22;14472;56.880;16.658;2024-02-26T15:14:11;4.20;99.90
26907;DHT22;14472;56.880;16.658;2024-02-26T15:16:37;4.20;99.90
26907;DHT22;14472;56.880;16.658;2024-02-26T15:19:02;4.00;99.90
26907;DHT22;14472;56.880;16.658;2024-02-26T15:21:32;4.00;99.90
26907;DHT22;14472;56.880;16.658;2024-02-26T15:23:58;3.90;99.90
26907;DHT22;14472;56.880;16.658;2024-02-26T15:26:24;4.00;99.90
26907;DHT22;14472;56.880;16.658;2024-02-26T15:28:51;4.20;99.90
26907;DHT22;14472;56.880;16.658;2024-02-26T15:31:18;4.20;99.90
26907;DHT22;14472;56.880;16.658;2024-02-26T15:33:44;4.10;99.90
26907;DHT22;14472;56.880;16.658;2024-02-26T15:36:10;4.00;99.90
26907;DHT22;14472;56.880;16.658;2024-02-26T15:38:36;4.00;99.90